Leonardo Antonio — ILTB2 — position and weather

sailwx.info

Track history (hours):
 
Tides and Currents Weather Stations Pressure Air Temp Water Temp Dewpoint Dewpoint Depression Visibility Wind Speed Wind Dir Waves Ship Positions

Leonardo Antonio

Last reported at 2017-Nov-16 08:32 UTC. Time now 2017-Nov-17 19:41 UTC.
Position N 39°49' E 016°32'.

Length 23 m; draft 3 m.

Type: Fishing. MMSI: 247133570.

Date/timePositionNaut miles runAvg speedWind from/ knotsBaromVisibWave heightAir tempDewpointWater temp
2017-Nov-16 08:32N 39°49' E 016°32'0 2.8
2017-Nov-16 08:30N 39°49' E 016°32'1 2.9
2017-Nov-16 08:00N 39°50' E 016°33'1 2.7
2017-Nov-16 07:29N 39°51' E 016°35'5 2.9
2017-Nov-16 05:47N 39°54' E 016°39'17 0.6
2017-Nov-15 02:31N 39°41' E 016°52'1 2.3
2017-Nov-15 02:09N 39°41' E 016°51'0 2.3
2017-Nov-15 01:56N 39°41' E 016°51'1 2.5
2017-Nov-15 01:29N 39°42' E 016°49'3 5.1
2017-Nov-15 00:50N 39°42' E 016°45'3 7.1
2017-Nov-15 00:25N 39°42' E 016°41'5 7.4
2017-Nov-14 23:46N 39°41' E 016°35'2 6.9
2017-Nov-14 23:30N 39°40' E 016°33'9 0.5
2017-Nov-14 06:55N 39°49' E 016°36'4 7.6
2017-Nov-14 06:22N 39°53' E 016°39'3 7.6
2017-Nov-14 06:00N 39°55' E 016°39'3 0.1
2017-Nov-13 01:57N 39°58' E 016°41'1 3.0
2017-Nov-13 01:27N 39°57' E 016°40'4 7.8
2017-Nov-13 00:56N 39°53' E 016°39'  
2017-Nov-10 15:13N 39°40' E 016°31'1 5.8
2017-Nov-10 14:59N 39°40' E 016°33'12 6.3
2017-Nov-10 13:04N 39°42' E 016°49'2 1.7
2017-Nov-10 11:52N 39°41' E 016°51'0 0.0
2017-Nov-10 05:29N 39°41' E 016°51'2 3.0
2017-Nov-10 04:50N 39°42' E 016°49'0 0.5
2017-Nov-10 04:30N 39°42' E 016°49'1 1.0
2017-Nov-10 03:49N 39°41' E 016°50'1 2.3
2017-Nov-10 03:30N 39°41' E 016°51'2 2.4
2017-Nov-10 02:40N 39°41' E 016°53'5 2.1
2017-Nov-10 00:12N 39°39' E 016°60'0 1.0
2017-Nov-09 23:48N 39°39' E 016°59'7 2.3
2017-Nov-09 20:53N 39°41' E 016°51'1 2.7
2017-Nov-09 20:29N 39°41' E 016°50'9 7.0
2017-Nov-09 19:11N 39°41' E 016°38'2 7.5
2017-Nov-09 18:57N 39°41' E 016°36'1 0.2
2017-Nov-09 12:45N 39°41' E 016°34'2 8.0
2017-Nov-09 12:28N 39°41' E 016°37'12 4.1
2017-Nov-09 09:39N 39°41' E 016°52'1 2.3
2017-Nov-09 09:18N 39°41' E 016°53'1 0.2
2017-Nov-09 03:52N 39°41' E 016°52'1 2.2
2017-Nov-09 03:27N 39°41' E 016°51'2 3.1
2017-Nov-09 02:54N 39°42' E 016°49'0 0.2
2017-Nov-09 02:23N 39°42' E 016°49'1 1.8
2017-Nov-09 01:57N 39°41' E 016°49'2 2.4
2017-Nov-09 01:18N 39°41' E 016°51'1 2.4
2017-Nov-09 00:49N 39°41' E 016°53'1 0.1
2017-Nov-08 19:56N 39°40' E 016°53'1 2.4
2017-Nov-08 19:25N 39°41' E 016°52'2 2.4
2017-Nov-08 18:37N 39°42' E 016°49'0 2.4
2017-Nov-08 18:26N 39°42' E 016°49'2 2.9
2017-Nov-08 17:46N 39°42' E 016°47'0 0.6
2017-Nov-08 17:16N 39°43' E 016°46'1 2.5
2017-Nov-08 16:50N 39°42' E 016°48'1 2.5
2017-Nov-08 16:29N 39°42' E 016°49'2 2.4
2017-Nov-08 15:40N 39°41' E 016°51'7 1.9
2017-Nov-08 12:12N 39°39' E 016°59'6 0.2
2017-Nov-07 06:31N 39°41' E 016°51'1 2.2
2017-Nov-07 06:08N 39°41' E 016°50'1 0.6
2017-Nov-07 04:04N 39°41' E 016°52'1 2.3
2017-Nov-07 03:46N 39°41' E 016°53'1 2.4
2017-Nov-07 03:22N 39°40' E 016°54'1 2.3
2017-Nov-07 02:55N 39°40' E 016°55'1 0.4
2017-Nov-06 23:53N 39°40' E 016°57'1 2.3
2017-Nov-06 23:29N 39°40' E 016°55'1 2.3
2017-Nov-06 22:54N 39°40' E 016°54'3 2.4
2017-Nov-06 21:38N 39°41' E 016°50'0 2.5
2017-Nov-06 21:30N 39°42' E 016°50'  
Track history (hours):
 
Tides and Currents Weather Stations Pressure Air Temp Water Temp Dewpoint Dewpoint Depression Visibility Wind Speed Wind Dir Waves Ship Positions

Leonardo Antonio

Last reported at 2017-Nov-16 08:32 UTC. Time now 2017-Nov-17 19:41 UTC.
Position N 39°49' E 016°32'.

Length 23 m; draft 3 m.

Type: Fishing. MMSI: 247133570.

Date/timePositionNaut miles runAvg speedWind from/ knotsBaromVisibWave heightAir tempDewpointWater temp
2017-Nov-16 08:32N 39°49' E 016°32'0 2.8
2017-Nov-16 08:30N 39°49' E 016°32'1 2.9
2017-Nov-16 08:00N 39°50' E 016°33'1 2.7
2017-Nov-16 07:29N 39°51' E 016°35'5 2.9
2017-Nov-16 05:47N 39°54' E 016°39'17 0.6
2017-Nov-15 02:31N 39°41' E 016°52'1 2.3
2017-Nov-15 02:09N 39°41' E 016°51'0 2.3
2017-Nov-15 01:56N 39°41' E 016°51'1 2.5
2017-Nov-15 01:29N 39°42' E 016°49'3 5.1
2017-Nov-15 00:50N 39°42' E 016°45'3 7.1
2017-Nov-15 00:25N 39°42' E 016°41'5 7.4
2017-Nov-14 23:46N 39°41' E 016°35'2 6.9
2017-Nov-14 23:30N 39°40' E 016°33'9 0.5
2017-Nov-14 06:55N 39°49' E 016°36'4 7.6
2017-Nov-14 06:22N 39°53' E 016°39'3 7.6
2017-Nov-14 06:00N 39°55' E 016°39'3 0.1
2017-Nov-13 01:57N 39°58' E 016°41'1 3.0
2017-Nov-13 01:27N 39°57' E 016°40'4 7.8
2017-Nov-13 00:56N 39°53' E 016°39'  
2017-Nov-10 15:13N 39°40' E 016°31'1 5.8
2017-Nov-10 14:59N 39°40' E 016°33'12 6.3
2017-Nov-10 13:04N 39°42' E 016°49'2 1.7
2017-Nov-10 11:52N 39°41' E 016°51'0 0.0
2017-Nov-10 05:29N 39°41' E 016°51'2 3.0
2017-Nov-10 04:50N 39°42' E 016°49'0 0.5
2017-Nov-10 04:30N 39°42' E 016°49'1 1.0
2017-Nov-10 03:49N 39°41' E 016°50'1 2.3
2017-Nov-10 03:30N 39°41' E 016°51'2 2.4
2017-Nov-10 02:40N 39°41' E 016°53'5 2.1
2017-Nov-10 00:12N 39°39' E 016°60'0 1.0
2017-Nov-09 23:48N 39°39' E 016°59'7 2.3
2017-Nov-09 20:53N 39°41' E 016°51'1 2.7
2017-Nov-09 20:29N 39°41' E 016°50'9 7.0
2017-Nov-09 19:11N 39°41' E 016°38'2 7.5
2017-Nov-09 18:57N 39°41' E 016°36'1 0.2
2017-Nov-09 12:45N 39°41' E 016°34'2 8.0
2017-Nov-09 12:28N 39°41' E 016°37'12 4.1
2017-Nov-09 09:39N 39°41' E 016°52'1 2.3
2017-Nov-09 09:18N 39°41' E 016°53'1 0.2
2017-Nov-09 03:52N 39°41' E 016°52'1 2.2
2017-Nov-09 03:27N 39°41' E 016°51'2 3.1
2017-Nov-09 02:54N 39°42' E 016°49'0 0.2
2017-Nov-09 02:23N 39°42' E 016°49'1 1.8
2017-Nov-09 01:57N 39°41' E 016°49'2 2.4
2017-Nov-09 01:18N 39°41' E 016°51'1 2.4
2017-Nov-09 00:49N 39°41' E 016°53'1 0.1
2017-Nov-08 19:56N 39°40' E 016°53'1 2.4
2017-Nov-08 19:25N 39°41' E 016°52'2 2.4
2017-Nov-08 18:37N 39°42' E 016°49'0 2.4
2017-Nov-08 18:26N 39°42' E 016°49'2 2.9
2017-Nov-08 17:46N 39°42' E 016°47'0 0.6
2017-Nov-08 17:16N 39°43' E 016°46'1 2.5
2017-Nov-08 16:50N 39°42' E 016°48'1 2.5
2017-Nov-08 16:29N 39°42' E 016°49'2 2.4
2017-Nov-08 15:40N 39°41' E 016°51'7 1.9
2017-Nov-08 12:12N 39°39' E 016°59'6 0.2
2017-Nov-07 06:31N 39°41' E 016°51'1 2.2
2017-Nov-07 06:08N 39°41' E 016°50'1 0.6
2017-Nov-07 04:04N 39°41' E 016°52'1 2.3
2017-Nov-07 03:46N 39°41' E 016°53'1 2.4
2017-Nov-07 03:22N 39°40' E 016°54'1 2.3
2017-Nov-07 02:55N 39°40' E 016°55'1 0.4
2017-Nov-06 23:53N 39°40' E 016°57'1 2.3
2017-Nov-06 23:29N 39°40' E 016°55'1 2.3
2017-Nov-06 22:54N 39°40' E 016°54'3 2.4
2017-Nov-06 21:38N 39°41' E 016°50'0 2.5
2017-Nov-06 21:30N 39°42' E 016°50'  

Dump ship's entire track history